Time;durP1;ratioP1;P1;durP2;ratioP2;P2;SDS_P1;SDS_P2;PMS_P1;PMS_P2;Temp;Humidity;BMP_temperature;BMP_pressure;BME280_temperature;BME280_humidity;BME280_pressure;Samples;Min_cycle;Max_cycle;Signal;HPM_P1;HPM_P2
2022/08/22 00:00:20;;;;;;;;;;;;;;;17.36;100.00;98986.28;5074509;28;19928;-81
2022/08/22 00:02:50;;;;;;;;;;;;;;;17.37;100.00;98981.44;5090165;28;19932;-81
2022/08/22 00:05:46;;;;;;;;;;;;;;;17.38;100.00;98983.78;5074160;28;19924;-81
2022/08/22 00:08:26;;;;;;;;;;;;;;;17.15;100.00;98987.22;5073258;28;19924;-80
2022/08/22 00:11:12;;;;;;;;;;;;;;;17.10;100.00;98984.25;5074388;28;19924;-81
2022/08/22 00:13:59;;;;;;;;;;;;;;;17.22;100.00;98986.16;5074575;28;19925;-81
2022/08/22 00:16:41;;;;;;;;;;;;;;;17.21;100.00;98985.34;5072609;28;19925;-81
2022/08/22 00:19:24;;;;;;;;;;;;;;;17.42;100.00;98977.97;5089772;28;19951;-81
2022/08/22 00:22:00;;;;;;;;;;;;;;;17.39;100.00;98981.72;5106658;28;19925;-81
2022/08/22 00:24:27;;;;;;;;;;;;;;;17.32;100.00;98984.88;5089755;28;20451;-81
2022/08/22 00:27:04;;;;;;;;;;;;;;;17.23;100.00;98990.53;5073629;28;19928;-81
2022/08/22 00:29:39;;;;;;;;;;;;;;;17.37;100.00;98989.91;5072659;28;19928;-81
2022/08/22 00:32:38;;;;;;;;;;;;;;;17.49;100.00;98992.59;5073760;28;20364;-81
2022/08/22 00:35:08;;;;;;;;;;;;;;;17.52;100.00;98988.06;5034876;28;19924;-81
2022/08/22 00:37:46;;;;;;;;;;;;;;;17.43;100.00;98996.50;5034793;28;19925;-81
2022/08/22 00:40:30;;;;;;;;;;;;;;;17.42;100.00;98989.25;5015140;28;19932;-81
2022/08/22 00:43:08;;;;;;;;;;;;;;;17.44;100.00;98986.78;5015105;28;19925;-81
2022/08/22 00:45:44;;;;;;;;;;;;;;;17.39;100.00;98984.56;5031293;28;19932;-81
2022/08/22 00:48:26;;;;;;;;;;;;;;;17.42;100.00;98992.09;5031138;28;20404;-81
2022/08/22 00:51:04;;;;;;;;;;;;;;;17.42;100.00;98977.97;5014963;28;19956;-81
2022/08/22 00:53:49;;;;;;;;;;;;;;;17.46;100.00;98978.63;5015056;28;19925;-81
2022/08/22 00:56:35;;;;;;;;;;;;;;;17.41;100.00;98982.06;5031429;28;19925;-81
2022/08/22 00:59:11;;;;;;;;;;;;;;;17.27;100.00;98988.31;5014532;28;20071;-81
2022/08/22 01:02:02;;;;;;;;;;;;;;;17.06;100.00;98978.75;4998142;28;20015;-81
2022/08/22 01:04:48;;;;;;;;;;;;;;;17.14;100.00;98988.50;4956246;28;19933;-81
2022/08/22 01:07:33;;;;;;;;;;;;;;;17.31;100.00;98980.50;4972344;28;19930;-81
2022/08/22 01:10:02;;;;;;;;;;;;;;;17.45;100.00;98975.03;4959618;28;20363;-81
2022/08/22 01:12:33;;;;;;;;;;;;;;;17.21;100.00;98979.72;4991693;28;19926;-81
2022/08/22 01:15:12;;;;;;;;;;;;;;;17.43;100.00;98985.19;4975230;28;19949;-81
2022/08/22 01:17:51;;;;;;;;;;;;;;;17.47;100.00;98969.69;5007660;28;19933;-81
2022/08/22 01:20:27;;;;;;;;;;;;;;;17.23;100.00;98973.59;4975524;28;20020;-81
2022/08/22 01:22:56;;;;;;;;;;;;;;;17.31;100.00;98972.78;5007885;28;20424;-81
2022/08/22 01:25:42;;;;;;;;;;;;;;;17.41;100.00;98962.28;4975058;28;19926;-81
2022/08/22 01:28:47;;;;;;;;;;;;;;;17.53;100.00;98972.66;4974879;28;19964;-81
2022/08/22 01:31:21;;;;;;;;;;;;;;;17.24;100.00;98972.31;4952407;29;19933;-81
2022/08/22 01:34:06;;;;;;;;;;;;;;;17.10;100.00;98970.91;4952781;29;19934;-81
2022/08/22 01:36:39;;;;;;;;;;;;;;;16.81;100.00;98972.63;4936726;29;20617;-81
2022/08/22 01:39:24;;;;;;;;;;;;;;;16.76;100.00;98974.00;4968333;28;20013;-81
2022/08/22 01:41:54;;;;;;;;;;;;;;;17.04;100.00;98964.31;5000127;28;20028;-81
2022/08/22 01:44:21;;;;;;;;;;;;;;;16.89;100.00;98966.19;5030487;28;19929;-81
2022/08/22 01:46:52;;;;;;;;;;;;;;;17.06;100.00;98963.84;5013829;28;19992;-81
2022/08/22 01:49:27;;;;;;;;;;;;;;;17.21;100.00;98951.47;5047097;28;20019;-81
2022/08/22 01:52:17;;;;;;;;;;;;;;;17.22;100.00;98953.03;5030518;28;19925;-80
2022/08/22 01:54:53;;;;;;;;;;;;;;;17.25;100.00;98951.31;5013846;28;19925;-81
2022/08/22 01:57:25;;;;;;;;;;;;;;;17.14;100.00;98945.34;5046949;28;19925;-81
2022/08/22 01:59:58;;;;;;;;;;;;;;;17.18;100.00;98940.31;5029978;28;19979;-81
2022/08/22 02:02:34;;;;;;;;;;;;;;;17.00;100.00;98943.16;5057672;28;20009;-81
2022/08/22 02:05:01;;;;;;;;;;;;;;;16.91;100.00;98938.28;5071529;28;20364;-81
2022/08/22 02:07:32;;;;;;;;;;;;;;;16.84;100.00;98935.00;5071312;28;19928;-81
2022/08/22 02:10:17;;;;;;;;;;;;;;;16.67;100.00;98933.72;5072562;28;20019;-81
2022/08/22 02:12:51;;;;;;;;;;;;;;;16.57;100.00;98932.91;5071453;28;20291;-81
2022/08/22 02:15:26;;;;;;;;;;;;;;;16.60;100.00;98919.91;5072365;28;19925;-81
2022/08/22 02:18:05;;;;;;;;;;;;;;;16.55;100.00;98926.16;5071191;28;19982;-81
2022/08/22 02:20:38;;;;;;;;;;;;;;;16.59;100.00;98915.50;5071440;28;20451;-81
2022/08/22 02:23:14;;;;;;;;;;;;;;;16.52;100.00;98927.91;5072515;28;19987;-81
2022/08/22 02:25:48;;;;;;;;;;;;;;;16.63;100.00;98927.44;5071321;28;19925;-81
2022/08/22 02:28:26;;;;;;;;;;;;;;;16.58;100.00;98928.06;5087594;28;19947;-80
2022/08/22 02:31:02;;;;;;;;;;;;;;;16.54;100.00;98924.59;5072563;28;20261;-80
2022/08/22 02:33:42;;;;;;;;;;;;;;;16.34;100.00;98916.53;5071396;28;19944;-81
2022/08/22 02:36:29;;;;;;;;;;;;;;;16.23;100.00;98922.63;5071216;28;20027;-80
2022/08/22 02:39:05;;;;;;;;;;;;;;;16.14;100.00;98914.13;5073286;28;19925;-80
2022/08/22 02:41:44;;;;;;;;;;;;;;;15.92;100.00;98919.03;5076052;28;20022;-80
2022/08/22 02:44:11;;;;;;;;;;;;;;;15.85;100.00;98908.06;5074483;28;20415;-81
2022/08/22 02:46:51;;;;;;;;;;;;;;;15.79;100.00;98921.19;5091358;28;19924;-81
2022/08/22 02:49:24;;;;;;;;;;;;;;;15.62;100.00;98914.19;5074863;28;19925;-81
2022/08/22 02:52:10;;;;;;;;;;;;;;;15.77;100.00;98923.66;5075760;28;20408;-80
2022/08/22 02:54:42;;;;;;;;;;;;;;;15.79;100.00;98926.81;5075804;28;20017;-81
2022/08/22 02:57:27;;;;;;;;;;;;;;;15.82;100.00;98922.28;5075735;28;19990;-80
2022/08/22 02:59:58;;;;;;;;;;;;;;;15.42;100.00;98913.75;5108263;28;19997;-80
2022/08/22 03:02:28;;;;;;;;;;;;;;;15.55;100.00;98920.09;5058023;28;19928;-80
2022/08/22 03:04:59;;;;;;;;;;;;;;;15.60;100.00;98921.53;5057831;28;19928;-80
2022/08/22 03:07:38;;;;;;;;;;;;;;;15.54;100.00;98918.50;5074299;28;19928;-80
2022/08/22 03:10:24;;;;;;;;;;;;;;;15.65;100.00;98916.09;5074294;28;19978;-81
2022/08/22 03:12:52;;;;;;;;;;;;;;;15.24;100.00;98907.97;5074115;28;20462;-80
2022/08/22 03:15:23;;;;;;;;;;;;;;;15.36;100.00;98912.75;5074389;28;20026;-81
2022/08/22 03:18:02;;;;;;;;;;;;;;;15.56;100.00;98916.03;5057575;28;19924;-80
2022/08/22 03:20:44;;;;;;;;;;;;;;;15.70;100.00;98912.69;5107604;28;19966;-81
2022/08/22 03:23:18;;;;;;;;;;;;;;;15.88;100.00;98917.59;5108069;28;20399;-80
2022/08/22 03:25:51;;;;;;;;;;;;;;;15.69;100.00;98916.72;5074977;28;20391;-80
2022/08/22 03:28:26;;;;;;;;;;;;;;;15.52;100.00;98911.78;5107712;28;19928;-81
2022/08/22 03:30:58;;;;;;;;;;;;;;;15.44;100.00;98916.91;5075301;28;19925;-81
2022/08/22 03:33:28;;;;;;;;;;;;;;;14.75;100.00;98908.97;5075127;28;20403;-81
2022/08/22 03:35:58;;;;;;;;;;;;;;;15.07;100.00;98898.16;5075077;28;19928;-80
2022/08/22 03:38:32;;;;;;;;;;;;;;;14.94;100.00;98911.50;5074197;28;20372;-80
2022/08/22 03:41:11;;;;;;;;;;;;;;;15.37;100.00;98899.47;5073504;28;20009;-80
2022/08/22 03:43:57;;;;;;;;;;;;;;;15.54;100.00;98901.63;5073629;28;19924;-81
2022/08/22 03:46:45;;;;;;;;;;;;;;;15.59;100.00;98901.03;5073519;28;19924;-80
2022/08/22 03:49:19;;;;;;;;;;;;;;;15.48;100.00;98900.66;5073577;28;20023;-80
2022/08/22 03:52:01;;;;;;;;;;;;;;;15.27;100.00;98895.00;5074253;28;19932;-80
2022/08/22 03:54:47;;;;;;;;;;;;;;;15.47;100.00;98898.28;5073307;28;19977;-80
2022/08/22 03:57:33;;;;;;;;;;;;;;;15.60;100.00;98891.31;5073269;28;19931;-81
2022/08/22 04:00:20;;;;;;;;;;;;;;;15.62;100.00;98883.22;5056869;28;19924;-81
2022/08/22 04:03:12;;;;;;;;;;;;;;;15.68;100.00;98880.56;5073661;28;19935;-81
2022/08/22 04:05:58;;;;;;;;;;;;;;;15.67;100.00;98876.19;5074297;28;20363;-81
2022/08/22 04:08:28;;;;;;;;;;;;;;;15.17;100.00;98868.03;5073117;28;20290;-81
2022/08/22 04:11:11;;;;;;;;;;;;;;;14.91;100.00;98860.97;5074191;28;19977;-81
2022/08/22 04:13:57;;;;;;;;;;;;;;;14.87;100.00;98852.69;5106834;28;19967;-81
2022/08/22 04:16:25;;;;;;;;;;;;;;;14.90;100.00;98865.84;5074233;28;19928;-81
2022/08/22 04:18:55;;;;;;;;;;;;;;;14.93;100.00;98875.38;5056463;28;19925;-81
2022/08/22 04:21:28;;;;;;;;;;;;;;;15.09;100.00;98873.16;5072856;28;20339;-81
2022/08/22 04:24:13;;;;;;;;;;;;;;;15.08;100.00;98882.84;5073981;28;19924;-81
2022/08/22 04:26:47;;;;;;;;;;;;;;;15.08;100.00;98874.41;5055926;28;20446;-80
2022/08/22 04:29:15;;;;;;;;;;;;;;;14.88;100.00;98865.50;5072663;28;20510;-80
2022/08/22 04:31:46;;;;;;;;;;;;;;;14.76;100.00;98862.72;5072831;28;19963;-81
2022/08/22 04:34:27;;;;;;;;;;;;;;;14.97;100.00;98859.94;5072900;28;20287;-81
2022/08/22 04:36:58;;;;;;;;;;;;;;;15.04;100.00;98865.28;5056023;28;19947;-81
2022/08/22 04:39:47;;;;;;;;;;;;;;;15.10;100.00;98860.66;5072062;28;19929;-81
2022/08/22 04:42:17;;;;;;;;;;;;;;;15.12;100.00;98860.19;5106221;28;19931;-80
2022/08/22 04:45:09;;;;;;;;;;;;;;;14.95;100.00;98864.47;5073535;28;19985;-81
2022/08/22 04:47:48;;;;;;;;;;;;;;;14.38;100.00;98865.69;5055761;28;19932;-81
2022/08/22 04:50:20;;;;;;;;;;;;;;;14.27;100.00;98870.88;5106190;28;20015;-81
2022/08/22 04:52:50;;;;;;;;;;;;;;;14.25;100.00;98881.78;5073454;28;19928;-80
2022/08/22 04:55:17;;;;;;;;;;;;;;;14.21;100.00;98875.44;5073435;28;19928;-81
2022/08/22 04:57:50;;;;;;;;;;;;;;;14.30;100.00;98878.38;5072249;28;20312;-80
2022/08/22 05:00:18;;;;;;;;;;;;;;;14.42;100.00;98875.56;5072149;28;19932;-81
2022/08/22 05:02:47;;;;;;;;;;;;;;;14.77;100.00;98876.34;5072793;28;19925;-80
2022/08/22 05:05:18;;;;;;;;;;;;;;;14.99;100.00;98874.34;5073396;28;19924;-81
2022/08/22 05:07:48;;;;;;;;;;;;;;;15.23;100.00;98878.25;5071840;28;20015;-80
2022/08/22 05:10:15;;;;;;;;;;;;;;;14.85;100.00;98865.63;5088963;28;19931;-80
2022/08/22 05:12:46;;;;;;;;;;;;;;;14.74;100.00;98866.00;5071931;28;20372;-80
2022/08/22 05:15:17;;;;;;;;;;;;;;;14.80;100.00;98869.81;5071446;28;19938;-80
2022/08/22 05:17:47;;;;;;;;;;;;;;;14.95;100.00;98875.72;5072121;28;20061;-80
2022/08/22 05:20:19;;;;;;;;;;;;;;;15.00;100.00;98861.84;5073040;28;19947;-80
2022/08/22 05:22:50;;;;;;;;;;;;;;;15.02;100.00;98867.81;5071848;28;19928;-80
2022/08/22 05:25:20;;;;;;;;;;;;;;;15.09;100.00;98878.00;5088591;28;20030;-80
2022/08/22 05:27:49;;;;;;;;;;;;;;;15.12;100.00;98871.44;5072980;28;19928;-81
2022/08/22 05:30:23;;;;;;;;;;;;;;;15.04;100.00;98876.56;5073332;28;19970;-81
2022/08/22 05:32:57;;;;;;;;;;;;;;;14.60;100.00;98879.78;5071710;28;20368;-81
2022/08/22 05:35:34;;;;;;;;;;;;;;;14.60;100.00;98883.38;5072885;28;19963;-80
2022/08/22 05:38:02;;;;;;;;;;;;;;;14.79;100.00;98887.94;5071411;28;19932;-80
2022/08/22 05:40:31;;;;;;;;;;;;;;;14.82;100.00;98881.38;5072745;28;19956;-81
2022/08/22 05:42:58;;;;;;;;;;;;;;;14.86;100.00;98884.84;5072973;28;19982;-80
2022/08/22 05:45:27;;;;;;;;;;;;;;;15.22;100.00;98881.53;5088173;28;20406;-80
2022/08/22 05:48:06;;;;;;;;;;;;;;;15.42;100.00;98885.59;5071484;28;19924;-80
2022/08/22 05:50:53;;;;;;;;;;;;;;;15.63;100.00;98884.78;5071612;28;19924;-80
2022/08/22 05:53:21;;;;;;;;;;;;;;;15.68;100.00;98887.00;5072439;28;19924;-81
2022/08/22 05:55:58;;;;;;;;;;;;;;;15.65;100.00;98871.03;5072576;28;20011;-80
2022/08/22 05:58:34;;;;;;;;;;;;;;;15.69;100.00;98868.06;5088388;28;19929;-81
2022/08/22 06:01:19;;;;;;;;;;;;;;;15.87;100.00;98866.09;5072900;28;19924;-81
2022/08/22 06:03:51;;;;;;;;;;;;;;;16.05;100.00;98871.78;5071579;28;19924;-81
2022/08/22 06:06:19;;;;;;;;;;;;;;;16.09;100.00;98877.28;5105086;28;19986;-81
2022/08/22 06:09:04;;;;;;;;;;;;;;;16.01;100.00;98865.53;5072447;28;19932;-81
2022/08/22 06:11:44;;;;;;;;;;;;;;;15.91;100.00;98875.22;5071332;28;19931;-81
2022/08/22 06:14:29;;;;;;;;;;;;;;;15.81;100.00;98872.81;5073055;28;19925;-81
2022/08/22 06:17:05;;;;;;;;;;;;;;;15.78;100.00;98868.88;5075485;28;19984;-81
2022/08/22 06:19:34;;;;;;;;;;;;;;;15.87;100.00;98877.38;5076741;28;19977;-81
2022/08/22 06:22:02;;;;;;;;;;;;;;;15.96;100.00;98868.19;5076462;28;19925;-81
2022/08/22 06:24:30;;;;;;;;;;;;;;;15.99;100.00;98870.06;5075131;28;19928;-81
2022/08/22 06:27:03;;;;;;;;;;;;;;;15.81;100.00;98867.97;5108441;28;20387;-81
2022/08/22 06:29:30;;;;;;;;;;;;;;;15.60;100.00;98868.78;5109138;28;20400;-81
2022/08/22 06:31:59;;;;;;;;;;;;;;;15.56;100.00;98868.16;5076182;28;19958;-80
2022/08/22 06:34:29;;;;;;;;;;;;;;;15.39;100.00;98864.00;5076185;28;20379;-81
2022/08/22 06:37:01;;;;;;;;;;;;;;;15.41;100.00;98860.72;5074814;28;20387;-81
2022/08/22 06:39:30;;;;;;;;;;;;;;;15.63;100.00;98862.25;5074585;28;20011;-80
2022/08/22 06:41:58;;;;;;;;;;;;;;;15.82;100.00;98869.53;5075987;28;19928;-80
2022/08/22 06:44:36;;;;;;;;;;;;;;;16.08;100.00;98868.03;5074520;28;19932;-80
2022/08/22 06:47:07;;;;;;;;;;;;;;;16.21;100.00;98863.09;5091685;28;19960;-80
2022/08/22 06:49:36;;;;;;;;;;;;;;;16.36;100.00;98868.91;5091307;28;20295;-80
2022/08/22 06:52:07;;;;;;;;;;;;;;;16.47;100.00;98865.66;5074716;28;19939;-80
2022/08/22 06:54:36;;;;;;;;;;;;;;;16.21;100.00;98857.44;5075598;28;19930;-80
2022/08/22 06:57:05;;;;;;;;;;;;;;;15.92;100.00;98851.41;5091199;28;19999;-80
2022/08/22 06:59:35;;;;;;;;;;;;;;;16.21;100.00;98853.84;5057865;28;19989;-80
2022/08/22 07:02:08;;;;;;;;;;;;;;;16.33;100.00;98863.44;5058032;28;20402;-80
2022/08/22 07:04:36;;;;;;;;;;;;;;;16.72;100.00;98857.69;5074055;28;19931;-80
2022/08/22 07:07:04;;;;;;;;;;;;;;;17.04;100.00;98856.31;5107755;28;20421;-80
2022/08/22 07:09:33;;;;;;;;;;;;;;;17.49;100.00;98842.13;5075594;28;19925;-80
2022/08/22 07:12:03;;;;;;;;;;;;;;;17.73;100.00;98831.66;5075562;28;20009;-80
2022/08/22 07:14:37;;;;;;;;;;;;;;;18.01;100.00;98827.44;5074066;28;19930;-80
2022/08/22 07:17:08;;;;;;;;;;;;;;;18.62;100.00;98823.94;5075212;28;19924;-80
2022/08/22 07:19:37;;;;;;;;;;;;;;;19.29;100.00;98801.34;5074033;28;19932;-81
2022/08/22 07:22:12;;;;;;;;;;;;;;;19.79;100.00;98821.19;5075201;28;19924;-81
2022/08/22 07:24:43;;;;;;;;;;;;;;;21.00;100.00;98803.03;5107193;28;20019;-81
2022/08/22 07:27:26;;;;;;;;;;;;;;;21.67;100.00;98798.75;5074719;28;19932;-81
2022/08/22 07:30:01;;;;;;;;;;;;;;;21.50;100.00;98792.94;5090705;28;19932;-81
2022/08/22 07:32:32;;;;;;;;;;;;;;;21.35;100.00;98792.28;5073698;28;20340;-81
2022/08/22 07:35:17;;;;;;;;;;;;;;;22.24;100.00;98788.81;5074926;28;20376;-81
2022/08/22 07:37:57;;;;;;;;;;;;;;;22.19;100.00;98792.41;5090648;28;19932;-81
2022/08/22 07:40:48;;;;;;;;;;;;;;;21.58;100.00;98790.41;5073657;28;19928;-81
2022/08/22 07:43:29;;;;;;;;;;;;;;;20.86;100.00;98798.19;5053978;28;20409;-81
2022/08/22 07:46:08;;;;;;;;;;;;;;;20.48;100.00;98796.44;5073540;28;19924;-81
2022/08/22 07:48:44;;;;;;;;;;;;;;;20.41;100.00;98785.53;5073550;28;20031;-81
2022/08/22 07:51:40;;;;;;;;;;;;;;;20.28;100.00;98790.75;5074605;28;19932;-81
2022/08/22 07:54:10;;;;;;;;;;;;;;;20.39;100.00;98790.13;5073286;28;20398;-81
2022/08/22 07:56:41;;;;;;;;;;;;;;;20.47;100.00;98785.59;5073683;28;20288;-81
2022/08/22 07:59:10;;;;;;;;;;;;;;;20.71;100.00;98792.59;5074545;28;20450;-81
2022/08/22 08:01:42;;;;;;;;;;;;;;;21.12;100.00;98784.81;5074273;28;19946;-81
2022/08/22 08:04:13;;;;;;;;;;;;;;;21.45;100.00;98785.13;5073232;28;20034;-81
2022/08/22 08:06:41;;;;;;;;;;;;;;;21.72;100.00;98773.19;5074494;28;20007;-81
2022/08/22 08:09:12;;;;;;;;;;;;;;;21.65;100.00;98773.66;5072918;28;20133;-81
2022/08/22 08:11:42;;;;;;;;;;;;;;;21.65;100.00;98782.19;5074353;28;19924;-81
2022/08/22 08:14:10;;;;;;;;;;;;;;;21.88;100.00;98783.16;5056826;28;19924;-81
2022/08/22 08:16:49;;;;;;;;;;;;;;;22.93;100.00;98782.41;5074061;28;19931;-81
2022/08/22 08:19:18;;;;;;;;;;;;;;;24.25;100.00;98778.81;5106652;28;19925;-81
2022/08/22 08:21:53;;;;;;;;;;;;;;;25.26;100.00;98769.28;5073075;28;19931;-81
2022/08/22 08:24:23;;;;;;;;;;;;;;;25.38;100.00;98753.63;5073932;28;19978;-82
2022/08/22 08:29:41;;;;;;;;;;;;;;;27.87;100.00;98746.34;5074016;28;19924;-81
2022/08/22 08:32:09;;;;;;;;;;;;;;;28.59;100.00;98735.59;5072147;28;19971;-81
2022/08/22 08:34:38;;;;;;;;;;;;;;;29.01;100.00;98732.28;5073735;28;20331;-81
2022/08/22 08:37:05;;;;;;;;;;;;;;;28.59;100.00;98736.38;5073778;28;19935;-82
2022/08/22 08:39:36;;;;;;;;;;;;;;;27.98;100.00;98736.75;5055927;28;19924;-82
2022/08/22 08:42:21;;;;;;;;;;;;;;;27.68;100.00;98730.50;5073773;28;19931;-82
2022/08/22 08:45:10;;;;;;;;;;;;;;;26.26;100.00;98744.22;5073479;28;20043;-81
2022/08/22 08:47:58;;;;;;;;;;;;;;;25.52;100.00;98735.28;5089078;28;20364;-81
2022/08/22 08:50:49;;;;;;;;;;;;;;;24.81;100.00;98742.28;5052842;28;19929;-82
2022/08/22 08:53:16;;;;;;;;;;;;;;;23.26;100.00;98736.13;5055797;28;19928;-81
2022/08/22 08:55:43;;;;;;;;;;;;;;;22.66;100.00;98746.06;5073312;28;19925;-81
2022/08/22 08:58:10;;;;;;;;;;;;;;;22.49;100.00;98741.59;5073589;28;19925;-81
2022/08/22 09:00:40;;;;;;;;;;;;;;;22.96;100.00;98741.50;5073177;28;19924;-81
2022/08/22 09:03:13;;;;;;;;;;;;;;;23.47;100.00;98733.78;5072200;28;19929;-81
2022/08/22 09:05:53;;;;;;;;;;;;;;;23.33;100.00;98729.91;5055339;28;19924;-81
2022/08/22 09:08:23;;;;;;;;;;;;;;;23.42;100.00;98721.09;5088905;28;20348;-81
2022/08/22 09:11:09;;;;;;;;;;;;;;;22.68;100.00;98728.47;5073223;28;19924;-81
2022/08/22 09:14:06;;;;;;;;;;;;;;;23.11;100.00;98739.19;5105746;28;20027;-81
2022/08/22 09:16:51;;;;;;;;;;;;;;;23.57;100.00;98733.00;5033417;28;20000;-81
2022/08/22 09:19:18;;;;;;;;;;;;;;;23.83;100.00;98735.56;5034294;28;20196;-81
2022/08/22 09:22:04;;;;;;;;;;;;;;;23.96;100.00;98730.91;5050984;28;20369;-81
2022/08/22 09:24:51;;;;;;;;;;;;;;;24.03;100.00;98733.22;5050665;28;20059;-81
2022/08/22 09:27:30;;;;;;;;;;;;;;;23.92;100.00;98724.66;5034118;28;19967;-81
2022/08/22 09:30:18;;;;;;;;;;;;;;;23.83;100.00;98729.84;5033969;28;20324;-81
2022/08/22 09:33:11;;;;;;;;;;;;;;;23.53;100.00;98720.31;5050728;28;19925;-82
2022/08/22 09:36:02;;;;;;;;;;;;;;;24.03;100.00;98718.19;5048117;28;20415;-81
2022/08/22 09:38:49;;;;;;;;;;;;;;;24.48;100.00;98711.00;5033497;28;19925;-82
2022/08/22 09:41:25;;;;;;;;;;;;;;;24.60;100.00;98709.63;5050356;28;19978;-81
2022/08/22 09:43:55;;;;;;;;;;;;;;;24.79;100.00;98704.91;5033632;28;20027;-81
2022/08/22 09:46:24;;;;;;;;;;;;;;;23.69;100.00;98710.97;5033993;28;19925;-81
2022/08/22 09:48:57;;;;;;;;;;;;;;;24.26;100.00;98703.31;5049817;28;19940;-81
2022/08/22 09:51:42;;;;;;;;;;;;;;;24.42;100.00;98693.09;5050562;28;19925;-81
2022/08/22 09:54:21;;;;;;;;;;;;;;;24.07;100.00;98690.91;5070400;28;19928;-81
2022/08/22 09:56:48;;;;;;;;;;;;;;;23.91;100.00;98693.81;5071369;28;19929;-81
2022/08/22 09:59:30;;;;;;;;;;;;;;;23.55;100.00;98683.50;5071514;28;19932;-81
2022/08/22 10:02:22;;;;;;;;;;;;;;;23.85;100.00;98684.47;5071683;28;20364;-81
2022/08/22 10:04:50;;;;;;;;;;;;;;;23.37;100.00;98687.66;5104993;28;19924;-81
2022/08/22 10:07:52;;;;;;;;;;;;;;;23.94;100.00;98681.34;5071364;28;19931;-81
2022/08/22 10:10:38;;;;;;;;;;;;;;;24.25;100.00;98689.56;5049911;28;19928;-81
2022/08/22 10:13:14;;;;;;;;;;;;;;;24.02;100.00;98679.53;5049941;28;19931;-81
2022/08/22 10:15:51;;;;;;;;;;;;;;;23.49;100.00;98685.59;5050313;28;19925;-81
2022/08/22 10:18:33;;;;;;;;;;;;;;;23.73;100.00;98688.66;5017482;28;20288;-81
2022/08/22 10:21:06;;;;;;;;;;;;;;;24.10;100.00;98677.66;5033518;28;19924;-81
2022/08/22 10:23:39;;;;;;;;;;;;;;;23.48;100.00;98675.50;5050416;28;19931;-81
2022/08/22 10:26:06;;;;;;;;;;;;;;;23.30;100.00;98673.16;5049951;28;20406;-81
2022/08/22 10:28:34;;;;;;;;;;;;;;;23.87;100.00;98676.94;5049956;28;19932;-81
2022/08/22 10:31:10;;;;;;;;;;;;;;;23.58;100.00;98674.69;5016799;28;20316;-81
2022/08/22 10:33:56;;;;;;;;;;;;;;;23.32;100.00;98674.19;5050027;28;19925;-81
2022/08/22 10:36:32;;;;;;;;;;;;;;;23.33;100.00;98672.09;5033267;28;19931;-81
2022/08/22 10:39:00;;;;;;;;;;;;;;;23.24;100.00;98692.28;5049912;28;19964;-81
2022/08/22 10:41:35;;;;;;;;;;;;;;;23.43;100.00;98694.13;5049896;28;19968;-81
2022/08/22 10:44:09;;;;;;;;;;;;;;;23.50;100.00;98682.22;5057677;28;20294;-81
2022/08/22 10:46:45;;;;;;;;;;;;;;;23.69;100.00;98679.59;5072210;28;20026;-81
2022/08/22 10:49:31;;;;;;;;;;;;;;;24.08;100.00;98668.88;5087778;28;19925;-81
2022/08/22 10:52:02;;;;;;;;;;;;;;;23.70;100.00;98672.59;5072233;28;19928;-81
2022/08/22 10:54:51;;;;;;;;;;;;;;;23.72;100.00;98670.00;5071957;28;20375;-81
2022/08/22 10:57:21;;;;;;;;;;;;;;;23.44;100.00;98672.88;5072028;28;20326;-81
2022/08/22 11:00:13;;;;;;;;;;;;;;;23.01;100.00;98668.72;5104524;28;19947;-81
2022/08/22 11:03:00;;;;;;;;;;;;;;;23.01;100.00;98675.19;5074605;28;20366;-81
2022/08/22 11:05:33;;;;;;;;;;;;;;;22.98;100.00;98681.94;5075611;28;19924;-81
2022/08/22 11:08:15;;;;;;;;;;;;;;;23.57;100.00;98687.38;5075476;28;19924;-81
2022/08/22 11:10:53;;;;;;;;;;;;;;;23.71;100.00;98692.03;5075260;28;19983;-81
2022/08/22 11:13:20;;;;;;;;;;;;;;;23.83;100.00;98675.66;5075544;28;19928;-81
2022/08/22 11:16:00;;;;;;;;;;;;;;;24.06;100.00;98688.59;5057835;28;19935;-80
2022/08/22 11:18:36;;;;;;;;;;;;;;;24.39;100.00;98674.19;5091215;28;20339;-81
2022/08/22 11:21:10;;;;;;;;;;;;;;;23.23;100.00;98670.78;5075464;28;19924;-81
2022/08/22 11:23:41;;;;;;;;;;;;;;;22.99;100.00;98680.63;5107443;28;19928;-81
2022/08/22 11:26:27;;;;;;;;;;;;;;;23.54;100.00;98671.31;5074875;28;20022;-81
2022/08/22 11:29:06;;;;;;;;;;;;;;;23.55;100.00;98667.19;5075252;28;19925;-81
2022/08/22 11:31:48;;;;;;;;;;;;;;;23.04;100.00;98659.13;5075248;28;19925;-81
2022/08/22 11:34:26;;;;;;;;;;;;;;;23.46;100.00;98670.28;5074107;28;19932;-81
2022/08/22 11:37:05;;;;;;;;;;;;;;;23.70;100.00;98655.47;5075193;28;19931;-81
2022/08/22 11:39:39;;;;;;;;;;;;;;;24.32;100.00;98654.75;5073215;28;20399;-81
2022/08/22 11:42:22;;;;;;;;;;;;;;;23.57;100.00;98661.72;5057357;28;19925;-81
2022/08/22 11:44:49;;;;;;;;;;;;;;;23.44;100.00;98650.09;5074806;28;20379;-81
2022/08/22 11:47:19;;;;;;;;;;;;;;;24.02;100.00;98654.63;5073734;28;19932;-81
2022/08/22 11:49:56;;;;;;;;;;;;;;;23.82;100.00;98654.94;5074672;28;19925;-80
2022/08/22 11:52:29;;;;;;;;;;;;;;;23.68;100.00;98656.00;5073576;28;19925;-81
2022/08/22 11:55:08;;;;;;;;;;;;;;;23.87;100.00;98647.66;5074409;28;19992;-81
2022/08/22 11:57:38;;;;;;;;;;;;;;;23.50;100.00;98641.50;5073593;28;19932;-81
2022/08/22 12:00:44;;;;;;;;;;;;;;;23.69;100.00;98626.16;5090090;28;20376;-81
2022/08/22 12:03:14;;;;;;;;;;;;;;;24.33;100.00;98619.19;5035461;28;19941;-81
2022/08/22 12:05:44;;;;;;;;;;;;;;;24.62;100.00;98601.34;5035782;28;19955;-81
2022/08/22 12:08:22;;;;;;;;;;;;;;;24.77;100.00;98610.38;5051955;28;19925;-81
2022/08/22 12:11:08;;;;;;;;;;;;;;;24.96;100.00;98596.19;5035324;28;19925;-81
2022/08/22 12:13:55;;;;;;;;;;;;;;;24.74;100.00;98606.50;5052007;28;20019;-81
2022/08/22 12:16:22;;;;;;;;;;;;;;;25.17;100.00;98586.66;5035666;28;20275;-81
2022/08/22 12:19:08;;;;;;;;;;;;;;;25.34;100.00;98590.13;5035358;28;20372;-81
2022/08/22 12:21:38;;;;;;;;;;;;;;;25.12;100.00;98590.34;5035342;28;20427;-81
2022/08/22 12:24:23;;;;;;;;;;;;;;;24.09;100.00;98602.72;5051642;28;19951;-81
2022/08/22 12:26:56;;;;;;;;;;;;;;;24.77;100.00;98587.50;5051753;28;20175;-81
2022/08/22 12:29:46;;;;;;;;;;;;;;;25.18;100.00;98585.34;5051585;28;20337;-81
2022/08/22 12:32:32;;;;;;;;;;;;;;;24.93;100.00;98583.72;5015594;28;19925;-81
2022/08/22 12:34:59;;;;;;;;;;;;;;;24.55;100.00;98590.50;5068924;28;19931;-81
2022/08/22 12:37:32;;;;;;;;;;;;;;;23.88;100.00;98600.69;5073570;28;19931;-81
2022/08/22 12:40:31;;;;;;;;;;;;;;;23.91;100.00;98591.09;5072406;28;19928;-81
2022/08/22 12:43:09;;;;;;;;;;;;;;;24.41;100.00;98609.56;5061596;28;20307;-81
2022/08/22 12:45:54;;;;;;;;;;;;;;;24.10;100.00;98600.63;5073666;28;19925;-81
2022/08/22 12:48:45;;;;;;;;;;;;;;;23.54;100.00;98599.28;5055776;28;19924;-81
2022/08/22 12:51:27;;;;;;;;;;;;;;;23.97;100.00;98584.09;5073509;28;20065;-81
2022/08/22 12:54:04;;;;;;;;;;;;;;;24.21;100.00;98586.28;5073205;28;19978;-81
2022/08/22 12:56:39;;;;;;;;;;;;;;;24.90;100.00;98596.22;5072375;28;20020;-81
2022/08/22 12:59:16;;;;;;;;;;;;;;;24.45;100.00;98583.56;5072417;28;19968;-81
2022/08/22 13:01:45;;;;;;;;;;;;;;;24.02;100.00;98585.38;5073466;28;20395;-81
2022/08/22 13:04:14;;;;;;;;;;;;;;;24.22;100.00;98596.44;5073172;28;19928;-81
2022/08/22 13:07:16;;;;;;;;;;;;;;;25.04;100.00;98589.34;5072977;28;19932;-81
2022/08/22 13:09:49;;;;;;;;;;;;;;;25.24;100.00;98574.63;5017795;28;19925;-81
2022/08/22 13:12:16;;;;;;;;;;;;;;;25.26;100.00;98576.94;5050965;28;20435;-81
2022/08/22 13:14:46;;;;;;;;;;;;;;;25.49;100.00;98567.63;5034160;28;19994;-81
2022/08/22 13:17:16;;;;;;;;;;;;;;;25.70;100.00;98565.84;5034389;28;19925;-81
2022/08/22 13:19:51;;;;;;;;;;;;;;;25.56;100.00;98574.81;5034593;28;19924;-81
2022/08/22 13:22:22;;;;;;;;;;;;;;;26.14;100.00;98565.28;5050588;28;20535;-81
2022/08/22 13:24:57;;;;;;;;;;;;;;;25.21;100.00;98581.41;5033382;28;20406;-81